Time;durP1;ratioP1;P1;durP2;ratioP2;P2;SDS_P1;SDS_P2;PMS_P1;PMS_P2;Temp;Humidity;BMP_temperature;BMP_pressure;BME280_temperature;BME280_humidity;BME280_pressure;Samples;Min_cycle;Max_cycle;Signal;HPM_P1;HPM_P2
2022/10/30 00:00:42;;;;;;;;;0.00;0.00;;;;;;;;4749673;30;8879;-92
2022/10/30 00:03:14;;;;;;;;;0.00;0.00;;;;;;;;4740260;30;8862;-92
2022/10/30 00:05:44;;;;;;;;;0.00;0.00;;;;;;;;4749690;30;8862;-91
2022/10/30 00:08:13;;;;;;;;;0.00;0.00;;;;;;;;4748740;30;11800;-91
2022/10/30 00:10:39;;;;;;;;;0.00;0.00;;;;;;;;4732949;30;11792;-92
2022/10/30 00:13:04;;;;;;;;;0.00;0.00;;;;;;;;4749115;30;11707;-92
2022/10/30 00:15:29;;;;;;;;;0.00;0.00;;;;;;;;4762625;30;8866;-92
2022/10/30 00:17:54;;;;;;;;;0.00;0.00;;;;;;;;4748736;30;8889;-92
2022/10/30 00:20:20;;;;;;;;;0.00;0.00;;;;;;;;4762846;30;8875;-92
2022/10/30 00:22:45;;;;;;;;;0.00;0.00;;;;;;;;4761431;30;8886;-91
2022/10/30 00:25:10;;;;;;;;;0.00;0.00;;;;;;;;4749328;30;8855;-91
2022/10/30 00:27:35;;;;;;;;;0.00;0.00;;;;;;;;4755226;30;8902;-92
2022/10/30 00:30:00;;;;;;;;;0.00;0.00;;;;;;;;4751202;30;8884;-91
2022/10/30 00:32:26;;;;;;;;;0.00;0.00;;;;;;;;4766009;30;8879;-92
2022/10/30 00:34:51;;;;;;;;;0.00;0.00;;;;;;;;4766861;30;8959;-92
2022/10/30 00:37:17;;;;;;;;;0.00;0.00;;;;;;;;4766332;30;9084;-92
2022/10/30 00:39:42;;;;;;;;;0.00;0.00;;;;;;;;4766803;30;8852;-92
2022/10/30 00:42:10;;;;;;;;;0.00;0.00;;;;;;;;4750443;30;8862;-92
2022/10/30 00:44:39;;;;;;;;;0.00;0.00;;;;;;;;4753797;30;8849;-92
2022/10/30 00:47:25;;;;;;;;;0.00;0.00;;;;;;;;4767613;30;11785;-91
2022/10/30 00:50:02;;;;;;;;;0.00;0.00;;;;;;;;4753584;30;11703;-91
2022/10/30 00:52:30;;;;;;;;;0.00;0.00;;;;;;;;4752023;30;11767;-91
2022/10/30 00:54:56;;;;;;;;;0.00;0.00;;;;;;;;4753430;30;11718;-92
2022/10/30 00:57:21;;;;;;;;;0.00;0.00;;;;;;;;4769213;30;11686;-91
2022/10/30 00:59:47;;;;;;;;;0.00;0.00;;;;;;;;4752973;30;11752;-92
2022/10/30 01:02:12;;;;;;;;;0.00;0.00;;;;;;;;4768539;30;8857;-91
2022/10/30 01:04:38;;;;;;;;;0.00;0.00;;;;;;;;4753645;30;8856;-92
2022/10/30 01:07:07;;;;;;;;;0.00;0.00;;;;;;;;4757619;30;9876;-91
2022/10/30 01:09:33;;;;;;;;;0.00;0.00;;;;;;;;4764616;30;8874;-92
2022/10/30 01:11:58;;;;;;;;;0.00;0.00;;;;;;;;4734978;30;11703;-91
2022/10/30 01:14:23;;;;;;;;;0.00;0.00;;;;;;;;4765096;30;8996;-92
2022/10/30 01:16:56;;;;;;;;;0.00;0.00;;;;;;;;4734674;30;8913;-92
2022/10/30 01:19:29;;;;;;;;;0.00;0.00;;;;;;;;4751571;30;8837;-91
2022/10/30 01:22:24;;;;;;;;;0.00;0.00;;;;;;;;4734937;30;11695;-91
2022/10/30 01:24:49;;;;;;;;;0.00;0.00;;;;;;;;4671947;30;8861;-91
2022/10/30 01:27:27;;;;;;;;;0.00;0.00;;;;;;;;4664796;30;11861;-91
2022/10/30 01:29:55;;;;;;;;;0.00;0.00;;;;;;;;4664777;30;8879;-92
2022/10/30 01:32:32;;;;;;;;;0.00;0.00;;;;;;;;4678648;30;11820;-91
2022/10/30 01:35:18;;;;;;;;;0.00;0.00;;;;;;;;4664578;30;11780;-91
2022/10/30 01:37:44;;;;;;;;;7.00;7.00;;;;;;;;4678596;30;12519;-91
2022/10/30 01:40:12;;;;;;;;;0.00;0.00;;;;;;;;4677997;30;8853;-91
2022/10/30 01:42:44;;;;;;;;;0.00;0.00;;;;;;;;4664747;30;12572;-91
2022/10/30 01:45:15;;;;;;;;;0.00;0.00;;;;;;;;4664571;30;11746;-92
2022/10/30 01:47:46;;;;;;;;;0.00;0.00;;;;;;;;4664025;30;11719;-92
2022/10/30 01:50:23;;;;;;;;;0.00;0.00;;;;;;;;4664605;30;11734;-91
2022/10/30 01:52:53;;;;;;;;;0.00;0.00;;;;;;;;4663475;30;11751;-92
2022/10/30 01:55:28;;;;;;;;;0.00;0.00;;;;;;;;4677659;30;11892;-91
2022/10/30 01:57:58;;;;;;;;;0.00;0.00;;;;;;;;4679021;30;11700;-91
2022/10/30 02:00:23;;;;;;;;;0.00;0.00;;;;;;;;4671913;30;11612;-92
2022/10/30 02:02:50;;;;;;;;;0.00;0.00;;;;;;;;4724559;30;11622;-91
2022/10/30 02:05:29;;;;;;;;;0.00;0.00;;;;;;;;4735225;30;8861;-91
2022/10/30 02:07:54;;;;;;;;;0.00;0.00;;;;;;;;4734855;30;11687;-92
2022/10/30 02:10:19;;;;;;;;;0.00;0.00;;;;;;;;4734255;30;11604;-91
2022/10/30 02:12:44;;;;;;;;;0.00;0.00;;;;;;;;4734692;30;8834;-91
2022/10/30 02:15:10;;;;;;;;;0.00;0.00;;;;;;;;4734636;30;8874;-92
2022/10/30 02:17:36;;;;;;;;;0.00;0.00;;;;;;;;4734496;30;8834;-92
2022/10/30 02:20:02;;;;;;;;;0.00;0.00;;;;;;;;4732665;30;8864;-92
2022/10/30 02:22:27;;;;;;;;;0.00;0.00;;;;;;;;4734186;30;11583;-91
2022/10/30 02:24:52;;;;;;;;;0.00;0.00;;;;;;;;4750758;30;8831;-91
2022/10/30 02:27:17;;;;;;;;;0.00;0.00;;;;;;;;4731325;30;8857;-92
2022/10/30 02:29:42;;;;;;;;;0.00;0.00;;;;;;;;4716623;30;8884;-91
2022/10/30 02:32:08;;;;;;;;;0.00;0.00;;;;;;;;4716452;30;8871;-92
2022/10/30 02:34:33;;;;;;;;;0.00;0.00;;;;;;;;4723935;30;8844;-91
2022/10/30 02:36:58;;;;;;;;;0.00;0.00;;;;;;;;4731962;30;8864;-91
2022/10/30 02:39:23;;;;;;;;;0.00;0.00;;;;;;;;4732270;30;8884;-92
2022/10/30 02:41:48;;;;;;;;;0.00;0.00;;;;;;;;4732103;30;8942;-92
2022/10/30 02:44:14;;;;;;;;;0.00;0.00;;;;;;;;4732490;30;8852;-91
2022/10/30 02:46:39;;;;;;;;;0.00;0.00;;;;;;;;4716186;30;8849;-91
2022/10/30 02:49:04;;;;;;;;;0.00;0.00;;;;;;;;4716840;30;8967;-91
2022/10/30 02:51:30;;;;;;;;;0.00;0.00;;;;;;;;4732805;30;8898;-91
2022/10/30 02:53:56;;;;;;;;;0.00;0.00;;;;;;;;4732724;30;8951;-91
2022/10/30 02:56:21;;;;;;;;;0.00;0.00;;;;;;;;4745683;30;9253;-91
2022/10/30 02:58:46;;;;;;;;;0.00;0.00;;;;;;;;4736638;30;8852;-91
2022/10/30 03:01:13;;;;;;;;;0.00;0.00;;;;;;;;4732977;30;8890;-91
2022/10/30 03:03:38;;;;;;;;;0.00;0.00;;;;;;;;4733573;30;8854;-91
2022/10/30 03:06:05;;;;;;;;;0.00;0.00;;;;;;;;4749453;30;11722;-92
2022/10/30 03:08:31;;;;;;;;;0.00;0.00;;;;;;;;4734135;30;8847;-91
2022/10/30 03:11:03;;;;;;;;;0.00;0.00;;;;;;;;4733328;30;11723;-91
2022/10/30 03:13:29;;;;;;;;;0.00;0.00;;;;;;;;4750514;30;8929;-91
2022/10/30 03:16:01;;;;;;;;;0.00;0.00;;;;;;;;4749283;30;11835;-91
2022/10/30 03:18:26;;;;;;;;;0.00;0.00;;;;;;;;4733519;30;8871;-91
2022/10/30 03:20:54;;;;;;;;;0.00;0.00;;;;;;;;4762560;30;11784;-90
2022/10/30 03:23:19;;;;;;;;;0.00;0.00;;;;;;;;4749784;30;8831;-91
2022/10/30 03:25:45;;;;;;;;;0.00;0.00;;;;;;;;4762634;30;11724;-91
2022/10/30 03:28:10;;;;;;;;;0.00;0.00;;;;;;;;4759002;30;8867;-91
2022/10/30 03:30:35;;;;;;;;;0.00;0.00;;;;;;;;4751411;30;9456;-91
2022/10/30 03:33:01;;;;;;;;;6.00;6.00;;;;;;;;4766436;30;8959;-92
2022/10/30 03:35:26;;;;;;;;;0.00;0.00;;;;;;;;4767245;30;8872;-91
2022/10/30 03:37:51;;;;;;;;;0.00;0.00;;;;;;;;4766859;30;9660;-92
2022/10/30 03:40:16;;;;;;;;;0.00;0.00;;;;;;;;4750566;30;8982;-91
2022/10/30 03:42:41;;;;;;;;;0.00;0.00;;;;;;;;4767236;30;8848;-91
2022/10/30 03:45:07;;;;;;;;;0.00;0.00;;;;;;;;4751201;30;9641;-92
2022/10/30 03:47:32;;;;;;;;;0.00;0.00;;;;;;;;4766751;30;8936;-92
2022/10/30 03:49:57;;;;;;;;;0.00;0.00;;;;;;;;4766335;30;8856;-92
2022/10/30 03:52:22;;;;;;;;;0.00;0.00;;;;;;;;4743963;30;8862;-92
2022/10/30 03:54:47;;;;;;;;;0.00;0.00;;;;;;;;4748939;30;8992;-91
2022/10/30 03:57:13;;;;;;;;;0.00;0.00;;;;;;;;4749781;30;8897;-91
2022/10/30 03:59:38;;;;;;;;;0.00;0.00;;;;;;;;4747875;30;9023;-91
2022/10/30 04:02:03;;;;;;;;;0.00;0.00;;;;;;;;4732684;30;8989;-91
2022/10/30 04:04:28;;;;;;;;;0.00;0.00;;;;;;;;4734486;30;9715;-92
2022/10/30 04:06:53;;;;;;;;;0.00;0.00;;;;;;;;4747790;30;8859;-92
2022/10/30 04:09:19;;;;;;;;;0.00;0.00;;;;;;;;4749211;30;8862;-91
2022/10/30 04:11:44;;;;;;;;;0.00;0.00;;;;;;;;4732638;30;8891;-92
2022/10/30 04:14:09;;;;;;;;;0.00;0.00;;;;;;;;4767308;30;8876;-91
2022/10/30 04:16:34;;;;;;;;;0.00;0.00;;;;;;;;4750188;30;8864;-92
2022/10/30 04:18:59;;;;;;;;;0.00;0.00;;;;;;;;4772995;30;8844;-92
2022/10/30 04:21:25;;;;;;;;;0.00;0.00;;;;;;;;4770091;30;8868;-92
2022/10/30 04:23:50;;;;;;;;;0.00;0.00;;;;;;;;4770585;30;8856;-91
2022/10/30 04:26:15;;;;;;;;;0.00;0.00;;;;;;;;4754196;30;8946;-92
2022/10/30 04:28:40;;;;;;;;;0.00;0.00;;;;;;;;4767791;30;8849;-91
2022/10/30 04:31:05;;;;;;;;;0.00;0.00;;;;;;;;4754190;30;8887;-91
2022/10/30 04:33:31;;;;;;;;;0.00;0.00;;;;;;;;4753898;30;8871;-91
2022/10/30 04:35:56;;;;;;;;;0.00;0.00;;;;;;;;4770366;30;8957;-92
2022/10/30 04:38:21;;;;;;;;;0.00;0.00;;;;;;;;4754067;30;8848;-91
2022/10/30 04:40:46;;;;;;;;;5.33;5.33;;;;;;;;4753561;30;8868;-91
2022/10/30 04:43:12;;;;;;;;;0.00;0.00;;;;;;;;4769936;30;8891;-91
2022/10/30 04:45:38;;;;;;;;;0.00;0.00;;;;;;;;4770350;30;8927;-91
2022/10/30 04:48:11;;;;;;;;;1.00;1.00;;;;;;;;4749770;30;8867;-91
2022/10/30 04:50:36;;;;;;;;;3.00;3.00;;;;;;;;4752107;30;8948;-92
2022/10/30 04:53:03;;;;;;;;;0.00;0.00;;;;;;;;4735225;30;11736;-92
2022/10/30 04:55:29;;;;;;;;;0.00;0.00;;;;;;;;4742635;30;8879;-91
2022/10/30 04:57:54;;;;;;;;;0.00;0.00;;;;;;;;4736182;30;11788;-91
2022/10/30 05:00:20;;;;;;;;;0.00;0.00;;;;;;;;4751364;30;8961;-92
2022/10/30 05:02:45;;;;;;;;;3.00;3.00;;;;;;;;4736449;30;8859;-91
2022/10/30 05:05:10;;;;;;;;;0.00;0.00;;;;;;;;4752098;30;8835;-91
2022/10/30 05:07:35;;;;;;;;;0.00;0.00;;;;;;;;4735044;30;8859;-92
2022/10/30 05:10:00;;;;;;;;;0.00;0.00;;;;;;;;4751867;30;8861;-91
2022/10/30 05:12:25;;;;;;;;;0.00;0.00;;;;;;;;4752610;30;8874;-91
2022/10/30 05:14:51;;;;;;;;;0.33;0.33;;;;;;;;4736253;30;8863;-91
2022/10/30 05:17:16;;;;;;;;;3.00;3.00;;;;;;;;4751628;30;8945;-91
2022/10/30 05:19:41;;;;;;;;;0.00;0.00;;;;;;;;4761992;30;8852;-91
2022/10/30 05:22:06;;;;;;;;;0.00;0.00;;;;;;;;4769248;30;8926;-90
2022/10/30 05:24:31;;;;;;;;;0.00;0.00;;;;;;;;4760710;30;8897;-91
2022/10/30 05:26:57;;;;;;;;;0.00;0.00;;;;;;;;4735444;30;8934;-91
2022/10/30 05:29:22;;;;;;;;;0.00;0.00;;;;;;;;4735322;30;8862;-91
2022/10/30 05:31:47;;;;;;;;;0.00;0.00;;;;;;;;4735744;30;8878;-91
2022/10/30 05:34:12;;;;;;;;;0.00;0.00;;;;;;;;4763023;30;8887;-90
2022/10/30 05:36:38;;;;;;;;;0.00;0.00;;;;;;;;4769181;30;8942;-91
2022/10/30 05:39:03;;;;;;;;;0.00;0.00;;;;;;;;4753308;30;8986;-91
2022/10/30 05:41:28;;;;;;;;;0.00;0.00;;;;;;;;4767062;30;9601;-91
2022/10/30 05:43:53;;;;;;;;;0.00;0.00;;;;;;;;4767915;30;8860;-91
2022/10/30 05:46:19;;;;;;;;;0.00;0.00;;;;;;;;4752785;30;8866;-91
2022/10/30 05:48:44;;;;;;;;;0.00;0.00;;;;;;;;4765672;30;8862;-90
2022/10/30 05:51:09;;;;;;;;;0.00;0.00;;;;;;;;4763617;30;8910;-92
2022/10/30 05:53:34;;;;;;;;;0.00;0.00;;;;;;;;4735570;30;8881;-91
2022/10/30 05:56:00;;;;;;;;;0.00;0.00;;;;;;;;4762907;30;8873;-91
2022/10/30 05:58:25;;;;;;;;;0.00;0.00;;;;;;;;4752404;30;9156;-91
2022/10/30 06:00:51;;;;;;;;;0.00;0.00;;;;;;;;4768125;30;8844;-90
2022/10/30 06:03:16;;;;;;;;;0.00;0.00;;;;;;;;4768340;30;8856;-91
2022/10/30 06:05:43;;;;;;;;;0.00;0.00;;;;;;;;4753673;30;9662;-91
2022/10/30 06:08:08;;;;;;;;;0.00;0.00;;;;;;;;4763869;30;8847;-90
2022/10/30 06:10:33;;;;;;;;;0.00;0.00;;;;;;;;4763540;30;8894;-91
2022/10/30 06:12:59;;;;;;;;;4.00;4.00;;;;;;;;4753407;30;8864;-91
2022/10/30 06:15:25;;;;;;;;;0.00;0.00;;;;;;;;4752268;30;8887;-91
2022/10/30 06:17:50;;;;;;;;;0.00;0.00;;;;;;;;4768035;30;8937;-91
2022/10/30 06:20:17;;;;;;;;;0.00;0.00;;;;;;;;4752134;30;8875;-91
2022/10/30 06:22:51;;;;;;;;;0.00;0.00;;;;;;;;4768513;30;8828;-91
2022/10/30 06:25:16;;;;;;;;;0.00;0.00;;;;;;;;4737719;30;11703;-91
2022/10/30 06:27:42;;;;;;;;;0.00;0.00;;;;;;;;4741341;30;11720;-92
2022/10/30 06:30:07;;;;;;;;;0.00;0.00;;;;;;;;4752014;30;8882;-90
2022/10/30 06:32:32;;;;;;;;;0.00;0.00;;;;;;;;4768008;30;8944;-92
2022/10/30 06:34:57;;;;;;;;;0.00;0.00;;;;;;;;4752277;30;9003;-92
2022/10/30 06:37:22;;;;;;;;;0.00;0.00;;;;;;;;4752229;30;8986;-91
2022/10/30 06:39:48;;;;;;;;;0.00;0.00;;;;;;;;4755480;30;8902;-90
2022/10/30 06:42:13;;;;;;;;;0.00;0.00;;;;;;;;4764726;30;8870;-91
2022/10/30 06:44:38;;;;;;;;;0.00;0.00;;;;;;;;4768247;30;8953;-91
2022/10/30 06:47:03;;;;;;;;;0.00;0.00;;;;;;;;4751542;30;8864;-91
2022/10/30 06:49:28;;;;;;;;;0.00;0.00;;;;;;;;4751683;30;9039;-91
2022/10/30 06:51:53;;;;;;;;;30.00;30.00;;;;;;;;4751011;30;8964;-91
2022/10/30 06:54:19;;;;;;;;;0.00;0.00;;;;;;;;4751849;30;8896;-91
2022/10/30 06:56:48;;;;;;;;;0.00;0.00;;;;;;;;4766097;30;8856;-88
2022/10/30 06:59:13;;;;;;;;;0.00;0.00;;;;;;;;4750343;30;8932;-89
2022/10/30 07:01:38;;;;;;;;;0.00;0.00;;;;;;;;4764794;30;11722;-89
2022/10/30 07:04:03;;;;;;;;;0.00;0.00;;;;;;;;4751591;30;8844;-91
2022/10/30 07:06:29;;;;;;;;;0.00;0.00;;;;;;;;4766991;30;8863;-91
2022/10/30 07:08:54;;;;;;;;;0.00;0.00;;;;;;;;4766876;29;8896;-89
2022/10/30 07:11:19;;;;;;;;;0.00;0.00;;;;;;;;4756603;30;8882;-89
2022/10/30 07:13:44;;;;;;;;;0.00;0.00;;;;;;;;4766431;30;8860;-91
2022/10/30 07:16:10;;;;;;;;;0.00;0.00;;;;;;;;4764084;30;8891;-95
2022/10/30 07:18:36;;;;;;;;;0.00;0.00;;;;;;;;4742706;30;9806;-89
2022/10/30 07:21:06;;;;;;;;;0.00;0.00;;;;;;;;4758107;30;11719;-96
2022/10/30 07:23:31;;;;;;;;;0.00;0.00;;;;;;;;4765780;30;8859;-91
2022/10/30 07:25:58;;;;;;;;;1.00;1.00;;;;;;;;4752809;30;11696;-87
2022/10/30 07:28:23;;;;;;;;;0.00;0.00;;;;;;;;4760761;30;8832;-88
2022/10/30 07:30:48;;;;;;;;;0.00;0.00;;;;;;;;4748507;29;11730;-90
2022/10/30 07:33:13;;;;;;;;;0.00;0.00;;;;;;;;4746525;30;8861;-88
2022/10/30 07:35:38;;;;;;;;;0.00;0.00;;;;;;;;4766880;30;8884;-91
2022/10/30 07:38:04;;;;;;;;;0.00;0.00;;;;;;;;4766358;30;8892;-88
2022/10/30 07:40:30;;;;;;;;;0.00;0.00;;;;;;;;4765687;30;8849;-88
2022/10/30 07:42:56;;;;;;;;;0.00;0.00;;;;;;;;4766157;30;11674;-87
2022/10/30 07:45:21;;;;;;;;;0.00;0.00;;;;;;;;4766298;30;8873;-88
2022/10/30 07:47:47;;;;;;;;;0.00;0.00;;;;;;;;4765201;30;11780;-88
2022/10/30 07:50:12;;;;;;;;;0.00;0.00;;;;;;;;4747282;30;8884;-88
2022/10/30 07:52:37;;;;;;;;;0.00;0.00;;;;;;;;4753198;30;8867;-88
2022/10/30 07:55:03;;;;;;;;;0.00;0.00;;;;;;;;4766173;30;9006;-87
2022/10/30 07:57:38;;;;;;;;;0.00;0.00;;;;;;;;4765692;30;8895;-88
2022/10/30 08:00:04;;;;;;;;;0.00;0.00;;;;;;;;4766127;30;8856;-89
2022/10/30 08:02:29;;;;;;;;;0.00;0.00;;;;;;;;4765061;30;11712;-89
2022/10/30 08:04:54;;;;;;;;;0.00;0.00;;;;;;;;4762307;29;11751;-87
2022/10/30 08:07:20;;;;;;;;;0.00;0.00;;;;;;;;4759791;30;8876;-87
2022/10/30 08:09:46;;;;;;;;;0.00;0.00;;;;;;;;4751656;29;9007;-88
2022/10/30 08:12:11;;;;;;;;;0.00;0.00;;;;;;;;4743422;30;8889;-88
2022/10/30 08:14:36;;;;;;;;;0.00;0.00;;;;;;;;4756998;30;11824;-88
2022/10/30 08:17:01;;;;;;;;;0.00;0.00;;;;;;;;4764713;29;8884;-88
2022/10/30 08:19:26;;;;;;;;;0.00;0.00;;;;;;;;4764479;30;9909;-96
2022/10/30 08:21:52;;;;;;;;;0.00;0.00;;;;;;;;4752112;30;9608;-89
2022/10/30 08:24:17;;;;;;;;;0.00;0.00;;;;;;;;4744295;30;8956;-87
2022/10/30 08:26:42;;;;;;;;;0.00;0.00;;;;;;;;4761341;30;8860;-87
2022/10/30 08:29:07;;;;;;;;;0.00;0.00;;;;;;;;4763579;29;8925;-87
2022/10/30 08:31:32;;;;;;;;;0.00;0.00;;;;;;;;4741355;30;9635;-88
2022/10/30 08:33:57;;;;;;;;;0.00;0.00;;;;;;;;4762317;29;8857;-95
2022/10/30 08:36:23;;;;;;;;;0.00;0.00;;;;;;;;4731368;30;8993;-90
2022/10/30 08:38:48;;;;;;;;;0.00;0.00;;;;;;;;4762857;30;9656;-90
2022/10/30 08:41:13;;;;;;;;;0.00;0.00;;;;;;;;4755942;30;8986;-94
2022/10/30 08:43:38;;;;;;;;;0.00;0.00;;;;;;;;4746125;30;8879;-96
2022/10/30 08:46:04;;;;;;;;;0.00;0.00;;;;;;;;4749744;30;8823;-95
2022/10/30 08:48:29;;;;;;;;;0.00;0.00;;;;;;;;4745409;30;8882;-95
2022/10/30 08:51:00;;;;;;;;;0.00;0.00;;;;;;;;4763424;30;8885;-92
2022/10/30 08:53:28;;;;;;;;;0.00;0.00;;;;;;;;4769976;30;8891;-94
2022/10/30 08:55:53;;;;;;;;;0.00;0.00;;;;;;;;4750962;30;11718;-92
2022/10/30 08:58:19;;;;;;;;;0.00;0.00;;;;;;;;4758282;30;12517;-89
2022/10/30 09:00:44;;;;;;;;;0.00;0.00;;;;;;;;4738158;29;8904;-89
2022/10/30 09:03:09;;;;;;;;;0.00;0.00;;;;;;;;4755886;30;8862;-90
2022/10/30 09:05:35;;;;;;;;;0.00;0.00;;;;;;;;4743982;30;8893;-90
2022/10/30 09:08:01;;;;;;;;;0.00;0.00;;;;;;;;4754980;30;8848;-88
2022/10/30 09:10:26;;;;;;;;;0.00;0.00;;;;;;;;4769380;30;11828;-90
2022/10/30 09:12:55;;;;;;;;;0.00;0.00;;;;;;;;4771135;30;8868;-89
2022/10/30 09:15:20;;;;;;;;;0.00;0.00;;;;;;;;4746580;30;8871;-90
2022/10/30 09:17:45;;;;;;;;;0.00;0.00;;;;;;;;4758740;30;11826;-91
2022/10/30 09:20:10;;;;;;;;;0.00;0.00;;;;;;;;4745211;30;8860;-89
2022/10/30 09:22:39;;;;;;;;;0.00;0.00;;;;;;;;4760101;30;9221;-91
2022/10/30 09:25:04;;;;;;;;;0.00;0.00;;;;;;;;4739744;30;8969;-90
2022/10/30 09:27:30;;;;;;;;;0.00;0.00;;;;;;;;4745598;30;11719;-90
2022/10/30 09:29:55;;;;;;;;;0.00;0.00;;;;;;;;4746083;30;8891;-91
2022/10/30 09:32:20;;;;;;;;;0.00;0.00;;;;;;;;4749949;30;9061;-91
2022/10/30 09:34:45;;;;;;;;;0.00;0.00;;;;;;;;4761225;30;8904;-91
2022/10/30 09:37:10;;;;;;;;;0.00;0.00;;;;;;;;4740763;30;8864;-90
2022/10/30 09:39:35;;;;;;;;;0.00;0.00;;;;;;;;4741902;30;8895;-91
2022/10/30 09:42:12;;;;;;;;;0.00;0.00;;;;;;;;4759463;30;8857;-90
2022/10/30 09:44:43;;;;;;;;;0.00;0.00;;;;;;;;4759183;30;8859;-92
2022/10/30 09:47:19;;;;;;;;;0.00;0.00;;;;;;;;4741948;30;11721;-93
2022/10/30 09:49:44;;;;;;;;;0.00;0.00;;;;;;;;4747297;30;11707;-91
2022/10/30 09:52:15;;;;;;;;;0.00;0.00;;;;;;;;4743677;30;11705;-93
2022/10/30 09:54:49;;;;;;;;;0.00;0.00;;;;;;;;4761623;30;8872;-94
2022/10/30 09:57:18;;;;;;;;;0.00;0.00;;;;;;;;4746511;30;11845;-92
2022/10/30 09:59:53;;;;;;;;;0.00;0.00;;;;;;;;4746933;30;11685;-90
2022/10/30 10:02:21;;;;;;;;;0.00;0.00;;;;;;;;4756517;30;11671;-91
2022/10/30 10:04:51;;;;;;;;;0.00;0.00;;;;;;;;4743511;30;11765;-92
2022/10/30 10:07:19;;;;;;;;;0.00;0.00;;;;;;;;4738625;30;8864;-91
2022/10/30 10:09:46;;;;;;;;;0.00;0.00;;;;;;;;4761139;30;11820;-92
2022/10/30 10:12:14;;;;;;;;;0.00;0.00;;;;;;;;4745414;30;11695;-92
2022/10/30 10:14:42;;;;;;;;;0.00;0.00;;;;;;;;4736758;30;11864;-91
2022/10/30 10:17:13;;;;;;;;;0.00;0.00;;;;;;;;4741592;30;11813;-91
2022/10/30 10:19:43;;;;;;;;;0.00;0.00;;;;;;;;4743823;30;11683;-91
2022/10/30 10:22:24;;;;;;;;;0.00;0.00;;;;;;;;4755579;30;11794;-91
2022/10/30 10:24:51;;;;;;;;;0.00;0.00;;;;;;;;4756278;30;11667;-93
2022/10/30 10:27:43;;;;;;;;;0.00;0.00;;;;;;;;4757983;30;11691;-93
2022/10/30 10:30:14;;;;;;;;;0.00;0.00;;;;;;;;4746059;30;11799;-94
2022/10/30 10:32:42;;;;;;;;;0.00;0.00;;;;;;;;4736033;30;11750;-93
2022/10/30 10:35:07;;;;;;;;;0.00;0.00;;;;;;;;4738855;30;11711;-95
2022/10/30 10:37:41;;;;;;;;;0.00;0.00;;;;;;;;4759372;30;11780;-94
2022/10/30 10:40:09;;;;;;;;;0.00;0.00;;;;;;;;4752423;30;9111;-93
2022/10/30 10:42:45;;;;;;;;;0.00;0.00;;;;;;;;4765181;30;11721;-94
2022/10/30 10:45:36;;;;;;;;;0.00;0.00;;;;;;;;4765042;30;11711;-94
2022/10/30 10:48:02;;;;;;;;;0.00;0.00;;;;;;;;4689022;30;11527;-92
2022/10/30 10:50:32;;;;;;;;;0.00;0.00;;;;;;;;4688137;30;11644;-93
2022/10/30 10:53:01;;;;;;;;;0.00;0.00;;;;;;;;4679152;30;9949;-91
2022/10/30 10:55:27;;;;;;;;;0.00;0.00;;;;;;;;4679606;30;11656;-92
2022/10/30 10:57:56;;;;;;;;;0.00;0.00;;;;;;;;4681185;30;11631;-92
2022/10/30 11:00:22;;;;;;;;;0.00;0.00;;;;;;;;4693197;30;11608;-91
2022/10/30 11:02:57;;;;;;;;;0.00;0.00;;;;;;;;4689758;30;11656;-94
2022/10/30 11:05:42;;;;;;;;;0.00;0.00;;;;;;;;4686876;30;8935;-91
2022/10/30 11:08:13;;;;;;;;;0.00;0.00;;;;;;;;4678088;30;11669;-92
2022/10/30 11:10:38;;;;;;;;;0.00;0.00;;;;;;;;4679082;30;11615;-92
2022/10/30 11:13:04;;;;;;;;;0.00;0.00;;;;;;;;4678480;30;11681;-92
2022/10/30 11:15:32;;;;;;;;;1.00;1.00;;;;;;;;4679149;30;8908;-92
2022/10/30 11:18:07;;;;;;;;;0.00;0.00;;;;;;;;4692921;30;8850;-89
2022/10/30 11:20:39;;;;;;;;;0.00;0.00;;;;;;;;4697177;30;11620;-93
2022/10/30 11:23:24;;;;;;;;;0.00;0.00;;;;;;;;4678017;30;12397;-89
2022/10/30 11:25:49;;;;;;;;;0.00;0.00;;;;;;;;4737885;30;11695;-90
2022/10/30 11:28:28;;;;;;;;;0.00;0.00;;;;;;;;4759655;30;11786;-95
2022/10/30 11:31:13;;;;;;;;;0.00;0.00;;;;;;;;4751206;30;8852;-88
2022/10/30 11:33:38;;;;;;;;;0.00;0.00;;;;;;;;4745534;30;11799;-91
2022/10/30 11:36:07;;;;;;;;;0.00;0.00;;;;;;;;4760437;30;11727;-93
2022/10/30 11:38:32;;;;;;;;;0.00;0.00;;;;;;;;4739310;30;8870;-91
2022/10/30 11:41:00;;;;;;;;;0.00;0.00;;;;;;;;4738269;30;12575;-91
2022/10/30 11:43:25;;;;;;;;;0.00;0.00;;;;;;;;4739434;30;8868;-84
2022/10/30 11:45:51;;;;;;;;;0.00;0.00;;;;;;;;4758920;30;11759;-94
2022/10/30 11:48:25;;;;;;;;;0.00;0.00;;;;;;;;4754878;29;8996;-89
2022/10/30 11:50:54;;;;;;;;;0.00;0.00;;;;;;;;4749809;30;8854;-87
2022/10/30 11:53:29;;;;;;;;;0.00;0.00;;;;;;;;4752101;30;12511;-87
2022/10/30 11:55:55;;;;;;;;;1.00;1.00;;;;;;;;4758516;30;11733;-88
2022/10/30 11:58:31;;;;;;;;;0.00;0.00;;;;;;;;4755845;30;11719;-87
2022/10/30 12:01:12;;;;;;;;;0.00;0.00;;;;;;;;4756327;29;11727;-84
2022/10/30 12:03:38;;;;;;;;;2.33;2.33;;;;;;;;4749484;30;12467;-86
2022/10/30 12:06:08;;;;;;;;;0.00;0.00;;;;;;;;4749628;30;11765;-89
2022/10/30 12:08:33;;;;;;;;;0.00;0.00;;;;;;;;4759794;30;11717;-92
2022/10/30 12:11:01;;;;;;;;;2.33;2.33;;;;;;;;4750860;30;11722;-93
2022/10/30 12:13:29;;;;;;;;;0.00;0.00;;;;;;;;4742322;30;8876;-91
2022/10/30 12:16:06;;;;;;;;;0.00;0.00;;;;;;;;4738756;30;11758;-91
2022/10/30 12:18:32;;;;;;;;;0.00;0.00;;;;;;;;4747831;30;11715;-92
2022/10/30 12:20:57;;;;;;;;;0.00;0.00;;;;;;;;4760289;30;11730;-90
2022/10/30 12:23:24;;;;;;;;;0.00;0.00;;;;;;;;4761570;30;8953;-92
2022/10/30 12:26:09;;;;;;;;;0.00;0.00;;;;;;;;4741952;30;8859;-93
2022/10/30 12:28:35;;;;;;;;;0.00;0.00;;;;;;;;4762020;30;11706;-91
2022/10/30 12:31:13;;;;;;;;;0.00;0.00;;;;;;;;4741332;30;11735;-90
2022/10/30 12:33:45;;;;;;;;;0.00;0.00;;;;;;;;4738333;30;8867;-91
2022/10/30 12:36:13;;;;;;;;;0.00;0.00;;;;;;;;4737435;30;11706;-89
2022/10/30 12:38:38;;;;;;;;;0.00;0.00;;;;;;;;4755281;30;11786;-88
2022/10/30 12:41:25;;;;;;;;;0.00;0.00;;;;;;;;4742148;30;11702;-89
2022/10/30 12:44:03;;;;;;;;;0.00;0.00;;;;;;;;4758430;30;9434;-88
2022/10/30 12:46:37;;;;;;;;;0.00;0.00;;;;;;;;4754652;30;11722;-90
2022/10/30 12:49:02;;;;;;;;;0.00;0.00;;;;;;;;4735461;30;12591;-89
2022/10/30 12:51:34;;;;;;;;;0.00;0.00;;;;;;;;4759862;30;11722;-90
2022/10/30 12:54:04;;;;;;;;;0.00;0.00;;;;;;;;4756434;30;8839;-88
2022/10/30 12:56:34;;;;;;;;;0.00;0.00;;;;;;;;4764551;30;11721;-86
2022/10/30 12:59:05;;;;;;;;;0.00;0.00;;;;;;;;4757396;30;11686;-85
2022/10/30 13:01:34;;;;;;;;;0.00;0.00;;;;;;;;4761885;30;11932;-86
2022/10/30 13:04:17;;;;;;;;;0.00;0.00;;;;;;;;4744304;30;11732;-86
2022/10/30 13:07:03;;;;;;;;;0.00;0.00;;;;;;;;4761990;30;11667;-86
2022/10/30 13:09:40;;;;;;;;;0.00;0.00;;;;;;;;4760477;30;11791;-85
2022/10/30 13:12:09;;;;;;;;;0.00;0.00;;;;;;;;4765710;30;12598;-86
2022/10/30 13:14:39;;;;;;;;;0.00;0.00;;;;;;;;4756111;30;11711;-85
2022/10/30 13:17:08;;;;;;;;;0.00;0.00;;;;;;;;4764257;29;11663;-85
2022/10/30 13:19:34;;;;;;;;;0.00;0.00;;;;;;;;4737631;30;11741;-84
2022/10/30 13:22:04;;;;;;;;;0.00;0.00;;;;;;;;4760232;30;11719;-84
2022/10/30 13:24:47;;;;;;;;;0.00;0.00;;;;;;;;4767158;29;8828;-84
2022/10/30 13:27:21;;;;;;;;;0.00;0.00;;;;;;;;4746866;30;11695;-85
2022/10/30 13:29:52;;;;;;;;;0.00;0.00;;;;;;;;4761735;30;11691;-84
2022/10/30 13:32:36;;;;;;;;;0.00;0.00;;;;;;;;4761234;30;11695;-85
2022/10/30 13:35:22;;;;;;;;;0.00;0.00;;;;;;;;4761645;30;11796;-84
2022/10/30 13:37:52;;;;;;;;;0.00;0.00;;;;;;;;4766911;30;11689;-84
2022/10/30 13:40:17;;;;;;;;;0.00;0.00;;;;;;;;4758694;30;11722;-85
2022/10/30 13:42:48;;;;;;;;;0.00;0.00;;;;;;;;4742150;30;11814;-84
2022/10/30 13:45:20;;;;;;;;;0.00;0.00;;;;;;;;4749575;29;10090;-85
2022/10/30 13:47:48;;;;;;;;;0.00;0.00;;;;;;;;4755563;30;12172;-84
2022/10/30 13:50:20;;;;;;;;;0.00;0.00;;;;;;;;4760372;30;11798;-84
2022/10/30 13:52:48;;;;;;;;;0.00;0.00;;;;;;;;4758096;30;11714;-84
2022/10/30 13:55:16;;;;;;;;;0.00;0.00;;;;;;;;4752098;30;11714;-84
2022/10/30 13:57:58;;;;;;;;;0.00;0.00;;;;;;;;4751532;30;11727;-84
2022/10/30 14:00:42;;;;;;;;;0.00;0.00;;;;;;;;4752016;30;11726;-84
2022/10/30 14:03:15;;;;;;;;;0.00;0.00;;;;;;;;4751911;30;11714;-84
2022/10/30 14:05:43;;;;;;;;;0.00;0.00;;;;;;;;4750867;30;12701;-84
2022/10/30 14:08:08;;;;;;;;;0.00;0.00;;;;;;;;4736040;30;11702;-84
2022/10/30 14:10:51;;;;;;;;;0.00;0.00;;;;;;;;4751243;30;11761;-86
2022/10/30 14:13:25;;;;;;;;;0.00;0.00;;;;;;;;4754960;30;9433;-88
2022/10/30 14:15:51;;;;;;;;;0.00;0.00;;;;;;;;4746966;30;11706;-89
2022/10/30 14:18:22;;;;;;;;;0.00;0.00;;;;;;;;4745615;30;11693;-89
2022/10/30 14:20:48;;;;;;;;;0.00;0.00;;;;;;;;4756902;30;11836;-89
2022/10/30 14:23:20;;;;;;;;;0.00;0.00;;;;;;;;4762387;30;12424;-89
2022/10/30 14:26:01;;;;;;;;;0.00;0.00;;;;;;;;4757833;30;11717;-90
2022/10/30 14:28:26;;;;;;;;;0.00;0.00;;;;;;;;4764360;30;11809;-89
2022/10/30 14:31:01;;;;;;;;;0.00;0.00;;;;;;;;4757991;30;11848;-89
2022/10/30 14:33:39;;;;;;;;;0.00;0.00;;;;;;;;4739524;30;8880;-90
2022/10/30 14:36:13;;;;;;;;;0.00;0.00;;;;;;;;4747366;30;11690;-89
2022/10/30 14:38:39;;;;;;;;;0.00;0.00;;;;;;;;4758493;30;11674;-89
2022/10/30 14:41:09;;;;;;;;;0.00;0.00;;;;;;;;4737286;30;11730;-90
2022/10/30 14:43:40;;;;;;;;;0.00;0.00;;;;;;;;4736929;30;8877;-89
2022/10/30 14:46:21;;;;;;;;;0.00;0.00;;;;;;;;4744247;30;11723;-89
2022/10/30 14:49:01;;;;;;;;;0.00;0.00;;;;;;;;4761366;30;11782;-89
2022/10/30 14:51:28;;;;;;;;;0.00;0.00;;;;;;;;4741645;30;11715;-86
2022/10/30 14:53:58;;;;;;;;;0.00;0.00;;;;;;;;4751114;30;11790;-86
2022/10/30 14:56:42;;;;;;;;;0.00;0.00;;;;;;;;4753585;30;11715;-85